Terminal Aerodrome Forecast
Issued by NWS

Home | Current Version | Previous Version | Text Only | Print | Product List | Glossary On
Versions: 1 2 3 4 5 6 7 8 9 10 11 12 13 14 15 16 17 18 19 20 21 22 23 24 25 26 27 28 29 30 31 32 33 34 35
000
FTAK31 PANC 240520
TAFAHO
TAF
PAHO 240520Z 2406/2506 35010KT P6SM -SN BKN015
      TEMPO 2406/2409 5SM -SN BR SCT015 BKN025
     FM240900 34008KT P6SM SCT015 BKN025
     FM241200 33006KT P6SM OVC050
     FM241500 34008KT P6SM FEW050
     FM241800 02010KT P6SM SKC=

USA.gov is the U.S. government's official web portal to all federal, state and local government web resources and services.